首页
METAR-TAF:

METAR-TAF

机场 :

維也納新城, 奥地利

纬度: 47-50-36N, 经度: 016-15-29E, 海拔: 272米

当前天气观测

该预报发布于4小时和41分钟前的16:00 UTC
风速2节,风向东转东北
温度
气压
能見度: 1000
轻雾

METAR: LOAN 261600Z 06002KT 1000 BR VV002

时间: 21:41 (20:41 UTC)

预报

该预报发布于9小时和16分钟前的11:25 UTC
预报有效从26日的 12点(UTC)到 26日的 21点(UTC)
风速2节,风向多变
能見度: 1800
阴天层高于800英尺
轻雾
短暂存在
从 26日的 12点(UTC)到 26日的 21点(UTC)
能見度: 0700
层高于200英尺
冻雾

TAF: LOAN 261125Z 2612/2621 VRB02KT 1800 BR OVC008 TEMPO 2612/2621 0700 FZFG VV002

超过4000个机场的气象观测和天气预报(METAR&TAF报告)。

可查询的气象台以黄色和红色小点在地图上表示。

将鼠标移到小点上方,可查看气象台名称。

然后点击查看天气观测和预报。

如需切换地图:点击带黑十字的绿色按钮放大地图;点击带横线的绿色按钮缩小地图;或者点击绿色箭头查看邻近地区的地图。


METAR-TAF: